sensor_id;sensor_type;location;lat;lon;timestamp;pressure;altitude;pressure_sealevel;temperature;humidity
43394;BME280;62479;62.642;17.954;2022-08-21T00:06:08;100974.79;;;17.25;83.08
43394;BME280;62479;62.642;17.954;2022-08-21T00:10:46;100975.45;;;17.10;82.09
43394;BME280;62479;62.642;17.954;2022-08-21T00:12:49;100976.12;;;17.23;82.64
43394;BME280;62479;62.642;17.954;2022-08-21T00:15:59;100979.58;;;17.18;83.21
43394;BME280;62479;62.642;17.954;2022-08-21T00:25:24;100985.46;;;17.18;82.64
43394;BME280;62479;62.642;17.954;2022-08-21T00:28:34;100987.85;;;17.02;82.38
43394;BME280;62479;62.642;17.954;2022-08-21T00:32:00;100986.15;;;17.07;82.78
43394;BME280;62479;62.642;17.954;2022-08-21T00:36:14;100983.49;;;17.09;82.82
43394;BME280;62479;62.642;17.954;2022-08-21T00:39:42;100980.84;;;17.13;83.12
43394;BME280;62479;62.642;17.954;2022-08-21T00:42:46;100979.31;;;17.11;82.32
43394;BME280;62479;62.642;17.954;2022-08-21T00:47:25;100979.56;;;17.09;81.73
43394;BME280;62479;62.642;17.954;2022-08-21T00:49:55;100984.41;;;17.04;82.82
43394;BME280;62479;62.642;17.954;2022-08-21T00:53:46;100980.95;;;17.16;81.93
43394;BME280;62479;62.642;17.954;2022-08-21T00:58:18;100974.20;;;17.05;83.01
43394;BME280;62479;62.642;17.954;2022-08-21T01:03:32;100972.73;;;17.08;82.20
43394;BME280;62479;62.642;17.954;2022-08-21T02:02:01;100958.77;;;16.59;82.61
43394;BME280;62479;62.642;17.954;2022-08-21T02:07:36;100966.53;;;16.84;82.41
43394;BME280;62479;62.642;17.954;2022-08-21T05:23:31;100908.48;;;17.77;79.16
43394;BME280;62479;62.642;17.954;2022-08-21T05:29:11;100909.24;;;17.62;79.67
43394;BME280;62479;62.642;17.954;2022-08-21T06:32:22;100907.48;;;18.37;77.55
43394;BME280;62479;62.642;17.954;2022-08-21T06:37:00;100911.60;;;18.58;76.44
43394;BME280;62479;62.642;17.954;2022-08-21T06:41:05;100905.58;;;18.71;78.31
43394;BME280;62479;62.642;17.954;2022-08-21T06:43:35;100900.18;;;18.99;78.60
43394;BME280;62479;62.642;17.954;2022-08-21T06:47:34;100895.28;;;19.21;77.43
43394;BME280;62479;62.642;17.954;2022-08-21T06:51:30;100898.45;;;19.29;75.06
43394;BME280;62479;62.642;17.954;2022-08-21T06:54:00;100896.60;;;19.37;76.13
43394;BME280;62479;62.642;17.954;2022-08-21T06:58:06;100883.49;;;19.75;76.11
43394;BME280;62479;62.642;17.954;2022-08-21T07:01:34;100878.72;;;20.15;76.42
43394;BME280;62479;62.642;17.954;2022-08-21T07:05:35;100873.16;;;20.27;74.91
43394;BME280;62479;62.642;17.954;2022-08-21T10:06:52;100791.58;;;30.14;50.73
43394;BME280;62479;62.642;17.954;2022-08-21T10:12:53;100798.58;;;29.65;50.46
43394;BME280;62479;62.642;17.954;2022-08-21T10:16:32;100793.00;;;30.85;49.53
43394;BME280;62479;62.642;17.954;2022-08-21T10:20:23;100799.88;;;29.88;51.09
43394;BME280;62479;62.642;17.954;2022-08-21T10:23:02;100800.97;;;29.33;47.28
43394;BME280;62479;62.642;17.954;2022-08-21T10:26:58;100811.62;;;28.49;51.47
43394;BME280;62479;62.642;17.954;2022-08-21T10:29:46;100811.47;;;27.82;50.72
43394;BME280;62479;62.642;17.954;2022-08-21T10:33:01;100807.36;;;27.10;54.86
43394;BME280;62479;62.642;17.954;2022-08-21T10:36:23;100807.35;;;26.77;54.28
43394;BME280;62479;62.642;17.954;2022-08-21T10:40:08;100803.51;;;26.67;54.01
43394;BME280;62479;62.642;17.954;2022-08-21T10:43:40;100807.85;;;25.99;52.70
43394;BME280;62479;62.642;17.954;2022-08-21T10:51:06;100823.51;;;26.82;50.87
43394;BME280;62479;62.642;17.954;2022-08-21T10:54:24;100816.71;;;26.94;53.76
43394;BME280;62479;62.642;17.954;2022-08-21T10:57:01;100814.78;;;26.70;48.46
43394;BME280;62479;62.642;17.954;2022-08-21T11:00:33;100812.68;;;26.16;52.02
43394;BME280;62479;62.642;17.954;2022-08-21T11:05:23;100807.65;;;26.48;56.58
43394;BME280;62479;62.642;17.954;2022-08-21T11:07:55;100811.62;;;26.43;50.67
43394;BME280;62479;62.642;17.954;2022-08-21T11:11:26;100819.43;;;25.62;56.53
43394;BME280;62479;62.642;17.954;2022-08-21T11:14:00;100816.79;;;25.11;54.55
43394;BME280;62479;62.642;17.954;2022-08-21T11:16:37;100814.76;;;24.47;56.37
43394;BME280;62479;62.642;17.954;2022-08-21T11:19:15;100818.92;;;24.03;55.09
43394;BME280;62479;62.642;17.954;2022-08-21T11:22:48;100823.52;;;23.53;56.32
43394;BME280;62479;62.642;17.954;2022-08-21T11:25:23;100824.00;;;23.37;55.63
43394;BME280;62479;62.642;17.954;2022-08-21T11:28:13;100823.61;;;23.29;58.15
43394;BME280;62479;62.642;17.954;2022-08-21T11:30:54;100824.15;;;23.17;56.46
43394;BME280;62479;62.642;17.954;2022-08-21T11:33:41;100824.05;;;23.26;57.01
43394;BME280;62479;62.642;17.954;2022-08-21T11:36:19;100822.61;;;23.18;55.35
43394;BME280;62479;62.642;17.954;2022-08-21T11:39:54;100822.49;;;22.70;57.99
43394;BME280;62479;62.642;17.954;2022-08-21T11:42:31;100822.40;;;22.34;57.77
43394;BME280;62479;62.642;17.954;2022-08-21T11:45:17;100828.18;;;22.18;58.44
43394;BME280;62479;62.642;17.954;2022-08-21T11:48:06;100824.75;;;21.98;59.33
43394;BME280;62479;62.642;17.954;2022-08-21T11:50:40;100827.60;;;21.66;60.08
43394;BME280;62479;62.642;17.954;2022-08-21T11:53:16;100828.17;;;21.66;59.95
43394;BME280;62479;62.642;17.954;2022-08-21T11:55:50;100828.18;;;21.72;59.07
43394;BME280;62479;62.642;17.954;2022-08-21T11:58:26;100825.80;;;21.68;59.57
43394;BME280;62479;62.642;17.954;2022-08-21T12:00:58;100826.37;;;21.68;59.83
43394;BME280;62479;62.642;17.954;2022-08-21T12:03:32;100831.06;;;21.95;58.12
43394;BME280;62479;62.642;17.954;2022-08-21T12:06:05;100836.89;;;21.98;58.13
43394;BME280;62479;62.642;17.954;2022-08-21T12:08:36;100835.98;;;21.84;57.17
43394;BME280;62479;62.642;17.954;2022-08-21T12:11:07;100833.80;;;21.80;58.63
43394;BME280;62479;62.642;17.954;2022-08-21T12:13:38;100832.35;;;21.43;58.80
43394;BME280;62479;62.642;17.954;2022-08-21T12:16:11;100832.27;;;21.32;59.26
43394;BME280;62479;62.642;17.954;2022-08-21T12:18:42;100831.67;;;21.16;59.94
43394;BME280;62479;62.642;17.954;2022-08-21T12:21:27;100830.25;;;20.92;59.51
43394;BME280;62479;62.642;17.954;2022-08-21T12:24:16;100830.95;;;20.64;60.03
43394;BME280;62479;62.642;17.954;2022-08-21T12:26:49;100836.16;;;20.55;61.79
43394;BME280;62479;62.642;17.954;2022-08-21T12:29:23;100841.26;;;20.38;62.04
43394;BME280;62479;62.642;17.954;2022-08-21T12:31:59;100846.19;;;20.42;62.76
43394;BME280;62479;62.642;17.954;2022-08-21T12:34:33;100851.31;;;20.41;63.25
43394;BME280;62479;62.642;17.954;2022-08-21T12:37:05;100850.49;;;20.40;64.27
43394;BME280;62479;62.642;17.954;2022-08-21T12:39:38;100844.15;;;20.38;62.71
43394;BME280;62479;62.642;17.954;2022-08-21T12:42:16;100837.60;;;20.33;62.84
43394;BME280;62479;62.642;17.954;2022-08-21T12:44:49;100840.41;;;20.33;64.17
43394;BME280;62479;62.642;17.954;2022-08-21T12:47:27;100840.90;;;20.32;63.69
43394;BME280;62479;62.642;17.954;2022-08-21T12:50:05;100838.28;;;20.39;64.36
43394;BME280;62479;62.642;17.954;2022-08-21T12:52:40;100837.05;;;20.35;63.63
43394;BME280;62479;62.642;17.954;2022-08-21T12:55:14;100838.35;;;20.52;64.61
43394;BME280;62479;62.642;17.954;2022-08-21T12:57:44;100832.31;;;20.76;62.87
43394;BME280;62479;62.642;17.954;2022-08-21T13:00:19;100827.32;;;21.06;64.38
43394;BME280;62479;62.642;17.954;2022-08-21T13:02:50;100830.67;;;21.17;63.68
43394;BME280;62479;62.642;17.954;2022-08-21T13:05:27;100836.48;;;21.40;62.80
43394;BME280;62479;62.642;17.954;2022-08-21T13:07:56;100833.35;;;21.41;61.80
43394;BME280;62479;62.642;17.954;2022-08-21T13:10:26;100830.86;;;21.46;61.74
43394;BME280;62479;62.642;17.954;2022-08-21T13:13:00;100830.39;;;21.48;60.88
43394;BME280;62479;62.642;17.954;2022-08-21T13:15:33;100827.85;;;21.37;60.97
43394;BME280;62479;62.642;17.954;2022-08-21T13:18:05;100826.43;;;21.31;61.84
43394;BME280;62479;62.642;17.954;2022-08-21T13:20:36;100825.05;;;21.17;59.70
43394;BME280;62479;62.642;17.954;2022-08-21T13:23:19;100825.54;;;21.20;60.78
43394;BME280;62479;62.642;17.954;2022-08-21T13:25:47;100820.11;;;20.98;59.45
43394;BME280;62479;62.642;17.954;2022-08-21T13:28:17;100821.51;;;20.96;60.69
43394;BME280;62479;62.642;17.954;2022-08-21T13:30:48;100823.56;;;20.91;60.57
43394;BME280;62479;62.642;17.954;2022-08-21T13:33:20;100823.01;;;20.94;60.03
43394;BME280;62479;62.642;17.954;2022-08-21T13:35:52;100829.15;;;20.88;60.96
43394;BME280;62479;62.642;17.954;2022-08-21T13:38:28;100826.52;;;20.68;62.06
43394;BME280;62479;62.642;17.954;2022-08-21T13:40:59;100822.99;;;20.75;60.75
43394;BME280;62479;62.642;17.954;2022-08-21T13:43:32;100828.91;;;20.86;60.70
43394;BME280;62479;62.642;17.954;2022-08-21T13:46:02;100832.36;;;20.96;60.52
43394;BME280;62479;62.642;17.954;2022-08-21T13:48:35;100830.84;;;20.86;60.65
43394;BME280;62479;62.642;17.954;2022-08-21T13:51:04;100825.52;;;20.85;60.60
43394;BME280;62479;62.642;17.954;2022-08-21T13:53:35;100826.60;;;20.83;61.36
43394;BME280;62479;62.642;17.954;2022-08-21T13:56:05;100820.38;;;20.62;61.44
43394;BME280;62479;62.642;17.954;2022-08-21T13:58:43;100819.47;;;20.82;61.69
43394;BME280;62479;62.642;17.954;2022-08-21T14:01:21;100815.80;;;20.90;60.72
43394;BME280;62479;62.642;17.954;2022-08-21T14:03:53;100812.16;;;20.93;59.59
43394;BME280;62479;62.642;17.954;2022-08-21T14:06:25;100813.03;;;20.77;59.89
43394;BME280;62479;62.642;17.954;2022-08-21T14:09:03;100813.71;;;20.84;60.08
43394;BME280;62479;62.642;17.954;2022-08-21T14:11:35;100813.74;;;20.76;59.97
43394;BME280;62479;62.642;17.954;2022-08-21T14:14:12;100812.74;;;20.60;60.24
43394;BME280;62479;62.642;17.954;2022-08-21T14:16:56;100808.88;;;20.65;60.85
43394;BME280;62479;62.642;17.954;2022-08-21T14:19:26;100806.37;;;20.72;59.60
43394;BME280;62479;62.642;17.954;2022-08-21T14:21:56;100806.85;;;20.74;60.21
43394;BME280;62479;62.642;17.954;2022-08-21T14:24:27;100807.51;;;20.73;58.99
43394;BME280;62479;62.642;17.954;2022-08-21T14:27:03;100809.32;;;20.75;59.23
43394;BME280;62479;62.642;17.954;2022-08-21T14:29:36;100810.81;;;20.78;58.94
43394;BME280;62479;62.642;17.954;2022-08-21T14:32:12;100808.87;;;20.90;58.10
43394;BME280;62479;62.642;17.954;2022-08-21T14:34:42;100802.21;;;20.86;58.45
43394;BME280;62479;62.642;17.954;2022-08-21T14:37:11;100803.71;;;21.06;59.02
43394;BME280;62479;62.642;17.954;2022-08-21T14:39:39;100803.81;;;21.10;57.36
43394;BME280;62479;62.642;17.954;2022-08-21T14:42:08;100809.01;;;21.13;57.82
43394;BME280;62479;62.642;17.954;2022-08-21T14:44:37;100813.14;;;21.00;57.63
43394;BME280;62479;62.642;17.954;2022-08-21T14:47:05;100811.28;;;20.82;57.70
43394;BME280;62479;62.642;17.954;2022-08-21T14:49:34;100820.74;;;20.62;58.39
43394;BME280;62479;62.642;17.954;2022-08-21T14:52:03;100815.39;;;20.49;58.44
43394;BME280;62479;62.642;17.954;2022-08-21T14:54:33;100810.29;;;20.36;59.02
43394;BME280;62479;62.642;17.954;2022-08-21T14:57:05;100806.70;;;20.19;59.50
43394;BME280;62479;62.642;17.954;2022-08-21T14:59:35;100809.61;;;20.08;59.60
43394;BME280;62479;62.642;17.954;2022-08-21T15:02:10;100808.63;;;19.91;60.03
43394;BME280;62479;62.642;17.954;2022-08-21T15:04:45;100806.64;;;19.63;60.40
43394;BME280;62479;62.642;17.954;2022-08-21T15:07:15;100806.26;;;19.65;61.49
43394;BME280;62479;62.642;17.954;2022-08-21T15:09:44;100805.62;;;19.56;61.03
43394;BME280;62479;62.642;17.954;2022-08-21T15:12:19;100805.02;;;19.82;60.87
43394;BME280;62479;62.642;17.954;2022-08-21T15:14:47;100805.06;;;19.74;60.29
43394;BME280;62479;62.642;17.954;2022-08-21T15:17:18;100804.86;;;19.72;60.54
43394;BME280;62479;62.642;17.954;2022-08-21T15:19:52;100804.62;;;19.88;60.23
43394;BME280;62479;62.642;17.954;2022-08-21T15:22:27;100802.18;;;20.09;60.45
43394;BME280;62479;62.642;17.954;2022-08-21T15:24:56;100798.75;;;20.41;59.45
43394;BME280;62479;62.642;17.954;2022-08-21T15:27:25;100795.64;;;20.85;57.99
43394;BME280;62479;62.642;17.954;2022-08-21T15:29:53;100790.37;;;21.20;57.41
43394;BME280;62479;62.642;17.954;2022-08-21T15:32:23;100776.98;;;21.52;56.55
43394;BME280;62479;62.642;17.954;2022-08-21T15:34:52;100774.92;;;21.52;56.36
43394;BME280;62479;62.642;17.954;2022-08-21T15:37:23;100765.64;;;21.59;55.13
43394;BME280;62479;62.642;17.954;2022-08-21T15:39:52;100759.92;;;21.69;55.26
43394;BME280;62479;62.642;17.954;2022-08-21T15:42:21;100759.61;;;21.84;54.04
43394;BME280;62479;62.642;17.954;2022-08-21T15:44:49;100762.86;;;21.88;54.53
43394;BME280;62479;62.642;17.954;2022-08-21T15:47:22;100764.04;;;21.69;53.88
43394;BME280;62479;62.642;17.954;2022-08-21T15:49:53;100765.41;;;21.55;53.85
43394;BME280;62479;62.642;17.954;2022-08-21T15:52:23;100765.43;;;21.42;53.84
43394;BME280;62479;62.642;17.954;2022-08-21T15:54:52;100771.22;;;21.36;54.26
43394;BME280;62479;62.642;17.954;2022-08-21T15:57:23;100771.22;;;21.29;54.59
43394;BME280;62479;62.642;17.954;2022-08-21T15:59:59;100774.55;;;21.44;54.95
43394;BME280;62479;62.642;17.954;2022-08-21T16:03:22;100775.88;;;21.09;55.73
43394;BME280;62479;62.642;17.954;2022-08-21T16:05:52;100782.56;;;21.16;55.11
43394;BME280;62479;62.642;17.954;2022-08-21T16:08:26;100786.06;;;21.27;55.50
43394;BME280;62479;62.642;17.954;2022-08-21T16:10:55;100782.44;;;21.05;56.13
43394;BME280;62479;62.642;17.954;2022-08-21T16:13:26;100784.07;;;20.86;56.17
43394;BME280;62479;62.642;17.954;2022-08-21T16:15:55;100779.36;;;20.81;55.92
43394;BME280;62479;62.642;17.954;2022-08-21T16:18:24;100776.78;;;20.62;56.43
43394;BME280;62479;62.642;17.954;2022-08-21T16:20:52;100779.54;;;20.57;57.27
43394;BME280;62479;62.642;17.954;2022-08-21T16:23:22;100778.15;;;20.55;57.30
43394;BME280;62479;62.642;17.954;2022-08-21T16:25:51;100780.24;;;20.56;57.93
43394;BME280;62479;62.642;17.954;2022-08-21T16:28:21;100770.79;;;20.41;57.78
43394;BME280;62479;62.642;17.954;2022-08-21T16:30:54;100773.34;;;20.44;58.00
43394;BME280;62479;62.642;17.954;2022-08-21T16:33:35;100773.95;;;20.46;57.91
43394;BME280;62479;62.642;17.954;2022-08-21T16:36:07;100773.64;;;20.28;57.74
43394;BME280;62479;62.642;17.954;2022-08-21T16:38:35;100775.18;;;20.25;58.17
43394;BME280;62479;62.642;17.954;2022-08-21T16:41:04;100784.35;;;20.18;58.46
43394;BME280;62479;62.642;17.954;2022-08-21T16:43:34;100781.48;;;19.86;58.66
43394;BME280;62479;62.642;17.954;2022-08-21T16:46:05;100779.09;;;19.95;59.33
43394;BME280;62479;62.642;17.954;2022-08-21T16:48:35;100777.46;;;19.81;59.09
43394;BME280;62479;62.642;17.954;2022-08-21T16:51:04;100781.60;;;19.73;59.49
43394;BME280;62479;62.642;17.954;2022-08-21T16:53:32;100787.02;;;19.79;59.58
43394;BME280;62479;62.642;17.954;2022-08-21T16:56:02;100785.84;;;19.67;59.88
43394;BME280;62479;62.642;17.954;2022-08-21T16:58:34;100784.48;;;19.48;60.28
43394;BME280;62479;62.642;17.954;2022-08-21T17:01:05;100783.32;;;19.44;60.39
43394;BME280;62479;62.642;17.954;2022-08-21T17:03:48;100782.97;;;19.43;60.38
43394;BME280;62479;62.642;17.954;2022-08-21T17:06:27;100779.04;;;19.37;60.86
43394;BME280;62479;62.642;17.954;2022-08-21T17:08:57;100781.48;;;19.20;60.90
43394;BME280;62479;62.642;17.954;2022-08-21T17:11:28;100784.11;;;19.21;60.79
43394;BME280;62479;62.642;17.954;2022-08-21T17:14:00;100781.81;;;19.14;61.02
43394;BME280;62479;62.642;17.954;2022-08-21T17:16:30;100780.08;;;18.94;61.49
43394;BME280;62479;62.642;17.954;2022-08-21T17:18:58;100786.28;;;19.11;61.18
43394;BME280;62479;62.642;17.954;2022-08-21T17:21:28;100782.23;;;18.88;60.95
43394;BME280;62479;62.642;17.954;2022-08-21T17:23:57;100782.07;;;18.87;61.28
43394;BME280;62479;62.642;17.954;2022-08-21T17:26:26;100778.21;;;18.94;61.13
43394;BME280;62479;62.642;17.954;2022-08-21T17:28:54;100779.83;;;18.90;61.47
43394;BME280;62479;62.642;17.954;2022-08-21T17:31:29;100786.54;;;18.87;61.05
43394;BME280;62479;62.642;17.954;2022-08-21T17:33:58;100792.87;;;18.72;60.64
43394;BME280;62479;62.642;17.954;2022-08-21T17:36:29;100788.93;;;18.80;60.92
43394;BME280;62479;62.642;17.954;2022-08-21T17:38:58;100796.44;;;18.49;61.38
43394;BME280;62479;62.642;17.954;2022-08-21T17:41:26;100793.84;;;18.34;61.62
43394;BME280;62479;62.642;17.954;2022-08-21T17:43:57;100793.01;;;18.30;62.20
43394;BME280;62479;62.642;17.954;2022-08-21T17:46:28;100795.55;;;18.10;62.74
43394;BME280;62479;62.642;17.954;2022-08-21T17:48:57;100794.03;;;18.00;63.19
43394;BME280;62479;62.642;17.954;2022-08-21T17:51:25;100793.00;;;17.91;63.83
43394;BME280;62479;62.642;17.954;2022-08-21T17:53:54;100793.54;;;17.76;64.36
43394;BME280;62479;62.642;17.954;2022-08-21T17:56:24;100793.27;;;17.60;64.86
43394;BME280;62479;62.642;17.954;2022-08-21T17:58:54;100794.51;;;17.58;65.11
43394;BME280;62479;62.642;17.954;2022-08-21T18:01:24;100794.94;;;17.54;65.62
43394;BME280;62479;62.642;17.954;2022-08-21T18:03:52;100798.24;;;17.45;65.52
43394;BME280;62479;62.642;17.954;2022-08-21T18:06:26;100797.84;;;17.39;65.76
43394;BME280;62479;62.642;17.954;2022-08-21T18:08:55;100796.63;;;17.10;66.26
43394;BME280;62479;62.642;17.954;2022-08-21T18:11:25;100806.59;;;17.02;66.71
43394;BME280;62479;62.642;17.954;2022-08-21T18:13:57;100808.33;;;16.88;67.08
43394;BME280;62479;62.642;17.954;2022-08-21T18:16:28;100805.97;;;16.88;67.52
43394;BME280;62479;62.642;17.954;2022-08-21T18:18:59;100800.06;;;16.74;67.98
43394;BME280;62479;62.642;17.954;2022-08-21T18:21:29;100796.93;;;16.70;68.29
43394;BME280;62479;62.642;17.954;2022-08-21T18:23:58;100792.89;;;16.64;68.45
43394;BME280;62479;62.642;17.954;2022-08-21T18:26:29;100796.71;;;16.56;68.84
43394;BME280;62479;62.642;17.954;2022-08-21T18:28:59;100799.12;;;16.55;69.08
43394;BME280;62479;62.642;17.954;2022-08-21T18:31:31;100804.90;;;16.48;69.47
43394;BME280;62479;62.642;17.954;2022-08-21T18:34:05;100804.78;;;16.44;69.68
43394;BME280;62479;62.642;17.954;2022-08-21T18:36:36;100800.95;;;16.43;70.08
43394;BME280;62479;62.642;17.954;2022-08-21T18:39:05;100805.24;;;16.25;70.22
43394;BME280;62479;62.642;17.954;2022-08-21T18:41:33;100808.61;;;16.30;70.47
43394;BME280;62479;62.642;17.954;2022-08-21T18:44:02;100808.93;;;16.15;70.59
43394;BME280;62479;62.642;17.954;2022-08-21T18:46:30;100802.80;;;16.15;70.93
43394;BME280;62479;62.642;17.954;2022-08-21T18:48:59;100800.11;;;16.11;71.04
43394;BME280;62479;62.642;17.954;2022-08-21T18:51:27;100804.41;;;16.05;71.35
43394;BME280;62479;62.642;17.954;2022-08-21T18:53:55;100807.14;;;16.09;71.42
43394;BME280;62479;62.642;17.954;2022-08-21T18:56:24;100802.47;;;16.10;71.56
43394;BME280;62479;62.642;17.954;2022-08-21T18:58:52;100801.65;;;16.11;71.54
43394;BME280;62479;62.642;17.954;2022-08-21T19:01:21;100804.94;;;16.04;71.72
43394;BME280;62479;62.642;17.954;2022-08-21T19:03:49;100810.30;;;15.96;71.80
43394;BME280;62479;62.642;17.954;2022-08-21T19:06:18;100813.71;;;15.82;71.91
43394;BME280;62479;62.642;17.954;2022-08-21T19:08:46;100814.45;;;15.88;72.03
43394;BME280;62479;62.642;17.954;2022-08-21T19:11:15;100810.13;;;15.88;72.08
43394;BME280;62479;62.642;17.954;2022-08-21T19:13:44;100811.23;;;15.80;72.25
43394;BME280;62479;62.642;17.954;2022-08-21T19:16:15;100810.74;;;15.73;72.42
43394;BME280;62479;62.642;17.954;2022-08-21T19:18:44;100809.32;;;15.74;72.37
43394;BME280;62479;62.642;17.954;2022-08-21T19:21:13;100808.26;;;15.72;72.24
43394;BME280;62479;62.642;17.954;2022-08-21T19:23:42;100807.45;;;15.81;72.36
43394;BME280;62479;62.642;17.954;2022-08-21T19:26:12;100807.19;;;15.75;72.28
43394;BME280;62479;62.642;17.954;2022-08-21T19:28:44;100811.99;;;15.71;72.45
43394;BME280;62479;62.642;17.954;2022-08-21T19:31:16;100816.94;;;15.70;72.57
43394;BME280;62479;62.642;17.954;2022-08-21T19:33:48;100823.68;;;15.66;72.52
43394;BME280;62479;62.642;17.954;2022-08-21T19:36:18;100821.02;;;15.59;72.59
43394;BME280;62479;62.642;17.954;2022-08-21T19:38:46;100817.24;;;15.67;72.72
43394;BME280;62479;62.642;17.954;2022-08-21T19:41:16;100820.70;;;15.54;72.95
43394;BME280;62479;62.642;17.954;2022-08-21T19:43:48;100821.30;;;15.44;73.00
43394;BME280;62479;62.642;17.954;2022-08-21T19:46:22;100822.71;;;15.45;73.04
43394;BME280;62479;62.642;17.954;2022-08-21T19:48:53;100825.30;;;15.55;73.04
43394;BME280;62479;62.642;17.954;2022-08-21T19:51:21;100826.57;;;15.44;72.99
43394;BME280;62479;62.642;17.954;2022-08-21T19:53:52;100823.15;;;15.36;73.07
43394;BME280;62479;62.642;17.954;2022-08-21T19:56:24;100823.45;;;15.32;73.08
43394;BME280;62479;62.642;17.954;2022-08-21T19:58:53;100819.95;;;15.29;73.03
43394;BME280;62479;62.642;17.954;2022-08-21T20:01:26;100823.37;;;15.31;72.97
43394;BME280;62479;62.642;17.954;2022-08-21T20:03:56;100822.19;;;15.27;72.89
43394;BME280;62479;62.642;17.954;2022-08-21T20:06:24;100822.93;;;15.30;72.79
43394;BME280;62479;62.642;17.954;2022-08-21T20:08:53;100823.66;;;15.39;72.81
43394;BME280;62479;62.642;17.954;2022-08-21T20:11:26;100826.60;;;15.38;72.90
43394;BME280;62479;62.642;17.954;2022-08-21T20:13:55;100828.99;;;15.30;72.97
43394;BME280;62479;62.642;17.954;2022-08-21T20:16:25;100821.78;;;15.26;72.96
43394;BME280;62479;62.642;17.954;2022-08-21T20:18:54;100821.01;;;15.23;72.55
43394;BME280;62479;62.642;17.954;2022-08-21T20:21:22;100815.35;;;15.44;71.98
43394;BME280;62479;62.642;17.954;2022-08-21T20:23:51;100819.42;;;15.48;71.31
43394;BME280;62479;62.642;17.954;2022-08-21T20:26:20;100822.74;;;15.67;70.98
43394;BME280;62479;62.642;17.954;2022-08-21T20:28:55;100822.46;;;15.71;70.99
43394;BME280;62479;62.642;17.954;2022-08-21T20:31:24;100819.25;;;15.57;71.01
43394;BME280;62479;62.642;17.954;2022-08-21T20:33:53;100818.23;;;15.48;70.98
43394;BME280;62479;62.642;17.954;2022-08-21T20:36:22;100815.62;;;15.53;70.95
43394;BME280;62479;62.642;17.954;2022-08-21T20:38:51;100811.34;;;15.46;71.16
43394;BME280;62479;62.642;17.954;2022-08-21T20:41:20;100809.04;;;15.46;71.27
43394;BME280;62479;62.642;17.954;2022-08-21T20:43:51;100811.85;;;15.45;71.12
43394;BME280;62479;62.642;17.954;2022-08-21T20:46:21;100816.50;;;15.52;71.01
43394;BME280;62479;62.642;17.954;2022-08-21T20:48:50;100819.45;;;15.43;70.88
43394;BME280;62479;62.642;17.954;2022-08-21T20:51:23;100820.76;;;15.49;70.69
43394;BME280;62479;62.642;17.954;2022-08-21T20:53:58;100815.79;;;15.47;70.59
43394;BME280;62479;62.642;17.954;2022-08-21T20:56:36;100815.03;;;15.48;70.46
43394;BME280;62479;62.642;17.954;2022-08-21T20:59:15;100813.47;;;15.45;70.80
43394;BME280;62479;62.642;17.954;2022-08-21T21:01:47;100813.98;;;15.50;70.50
43394;BME280;62479;62.642;17.954;2022-08-21T21:04:26;100820.92;;;15.36;70.24
43394;BME280;62479;62.642;17.954;2022-08-21T21:07:00;100820.21;;;15.54;70.01
43394;BME280;62479;62.642;17.954;2022-08-21T21:09:32;100822.38;;;15.45;69.96
43394;BME280;62479;62.642;17.954;2022-08-21T21:12:06;100821.85;;;15.51;70.13
43394;BME280;62479;62.642;17.954;2022-08-21T21:14:43;100815.68;;;15.35;70.24
43394;BME280;62479;62.642;17.954;2022-08-21T21:17:16;100818.19;;;15.31;70.30
43394;BME280;62479;62.642;17.954;2022-08-21T21:19:51;100820.44;;;15.34;70.37
43394;BME280;62479;62.642;17.954;2022-08-21T21:22:25;100821.58;;;15.31;70.54
43394;BME280;62479;62.642;17.954;2022-08-21T21:24:57;100826.33;;;15.39;70.33
43394;BME280;62479;62.642;17.954;2022-08-21T21:27:32;100825.62;;;15.22;70.52
43394;BME280;62479;62.642;17.954;2022-08-21T21:30:06;100825.34;;;15.21;70.73
43394;BME280;62479;62.642;17.954;2022-08-21T21:32:36;100827.86;;;15.21;70.78
43394;BME280;62479;62.642;17.954;2022-08-21T21:35:06;100823.06;;;15.27;70.89
43394;BME280;62479;62.642;17.954;2022-08-21T21:37:42;100818.44;;;15.28;70.84
43394;BME280;62479;62.642;17.954;2022-08-21T21:40:33;100814.73;;;15.14;71.02
43394;BME280;62479;62.642;17.954;2022-08-21T21:43:12;100814.56;;;15.19;71.04
43394;BME280;62479;62.642;17.954;2022-08-21T21:45:57;100809.87;;;15.07;71.14
43394;BME280;62479;62.642;17.954;2022-08-21T21:48:37;100812.83;;;15.07;71.27
43394;BME280;62479;62.642;17.954;2022-08-21T21:51:17;100820.04;;;14.97;71.36
43394;BME280;62479;62.642;17.954;2022-08-21T21:54:00;100817.80;;;15.03;71.33
43394;BME280;62479;62.642;17.954;2022-08-21T21:56:36;100815.93;;;15.08;71.19
43394;BME280;62479;62.642;17.954;2022-08-21T21:59:19;100814.74;;;14.99;71.04
43394;BME280;62479;62.642;17.954;2022-08-21T22:03:29;100821.95;;;14.89;71.18
43394;BME280;62479;62.642;17.954;2022-08-21T22:06:07;100822.40;;;14.89;71.25
43394;BME280;62479;62.642;17.954;2022-08-21T22:08:44;100823.80;;;14.93;71.34
43394;BME280;62479;62.642;17.954;2022-08-21T22:11:22;100823.66;;;14.89;71.30
43394;BME280;62479;62.642;17.954;2022-08-21T22:14:00;100822.35;;;14.97;71.24
43394;BME280;62479;62.642;17.954;2022-08-21T22:16:32;100827.14;;;14.90;71.14
43394;BME280;62479;62.642;17.954;2022-08-21T22:19:06;100822.89;;;14.91;71.09
43394;BME280;62479;62.642;17.954;2022-08-21T22:21:42;100823.23;;;15.02;70.80
43394;BME280;62479;62.642;17.954;2022-08-21T22:24:20;100824.89;;;14.90;70.71